createdAt,value
2018-07-26T00:00:08.530Z,96900.55
2018-07-26T00:02:35.972Z,96904.27
2018-07-26T00:05:03.532Z,96901.59
2018-07-26T00:07:30.981Z,96899.70
2018-07-26T00:09:58.386Z,96902.08
2018-07-26T00:12:25.821Z,96904.55
2018-07-26T00:14:53.354Z,96898.86
2018-07-26T00:17:20.905Z,96895.61
2018-07-26T00:19:48.366Z,96897.27
2018-07-26T00:22:15.862Z,96899.14
2018-07-26T00:24:43.313Z,96902.62
2018-07-26T00:27:10.885Z,96896.98
2018-07-26T00:29:38.347Z,96888.80
2018-07-26T00:32:05.767Z,96892.92
2018-07-26T00:34:33.235Z,96900.45
2018-07-26T00:37:00.654Z,96901.24
2018-07-26T00:39:28.084Z,96900.72
2018-07-26T00:41:55.606Z,96902.30
2018-07-26T00:44:23.054Z,96902.03
2018-07-26T00:46:50.523Z,96905.27
2018-07-26T00:49:17.996Z,96904.87
2018-07-26T00:51:46.238Z,96902.59
2018-07-26T00:54:13.856Z,96907.67
2018-07-26T00:56:41.359Z,96903.53
2018-07-26T00:59:08.851Z,96900.48
2018-07-26T01:01:36.324Z,96900.38
2018-07-26T01:04:03.779Z,96905.08
2018-07-26T01:06:31.264Z,96899.83
2018-07-26T01:08:58.773Z,96909.36
2018-07-26T01:11:26.231Z,96908.44
2018-07-26T01:13:53.666Z,96911.17
2018-07-26T01:16:21.135Z,96909.13
2018-07-26T01:18:48.590Z,96909.05
2018-07-26T01:21:16.070Z,96906.79
2018-07-26T01:23:43.521Z,96905.52
2018-07-26T01:26:11.126Z,96906.58
2018-07-26T01:28:38.546Z,96908.46
2018-07-26T01:31:06.008Z,96898.27
2018-07-26T01:33:33.546Z,96901.08
2018-07-26T01:36:01.049Z,96902.83
2018-07-26T01:38:28.508Z,96899.78
2018-07-26T01:40:56.045Z,96897.83
2018-07-26T01:43:23.531Z,96895.39
2018-07-26T01:45:51.004Z,96897.69
2018-07-26T01:48:18.456Z,96903.53
2018-07-26T01:50:45.903Z,96899.52
2018-07-26T01:53:13.376Z,96896.73
2018-07-26T01:55:40.789Z,96907.23
2018-07-26T01:58:08.222Z,96905.89
2018-07-26T02:00:35.671Z,96900.19
2018-07-26T02:03:03.123Z,96902.23
2018-07-26T02:05:30.526Z,96904.77
2018-07-26T02:07:57.950Z,96908.05
2018-07-26T02:10:25.411Z,96908.16
2018-07-26T02:12:52.855Z,96908.20
2018-07-26T02:15:20.266Z,96905.73
2018-07-26T02:17:47.724Z,96900.10
2018-07-26T02:20:15.225Z,96901.92
2018-07-26T02:22:42.678Z,96897.98
2018-07-26T02:25:10.108Z,96895.62
2018-07-26T02:27:37.648Z,96896.28
2018-07-26T02:30:05.055Z,96897.72
2018-07-26T02:32:32.478Z,96894.84
2018-07-26T02:34:59.941Z,96889.33
2018-07-26T02:37:27.415Z,96893.84
2018-07-26T02:39:54.893Z,96892.95
2018-07-26T02:42:23.071Z,96890.23
2018-07-26T02:44:50.557Z,96887.93
2018-07-26T02:47:17.999Z,96889.70
2018-07-26T02:49:45.616Z,96890.48
2018-07-26T02:52:13.176Z,96887.81
2018-07-26T02:54:40.757Z,96883.05
2018-07-26T02:57:08.303Z,96887.30
2018-07-26T02:59:35.861Z,96886.77
2018-07-26T03:02:03.369Z,96889.34
2018-07-26T03:04:30.828Z,96882.88
2018-07-26T03:06:58.303Z,96885.67
2018-07-26T03:09:25.768Z,96883.17
2018-07-26T03:11:53.260Z,96884.55
2018-07-26T03:14:20.747Z,96885.38
2018-07-26T03:16:48.283Z,96884.65
2018-07-26T03:19:15.917Z,96893.93
2018-07-26T03:21:43.322Z,96896.65
2018-07-26T03:24:10.796Z,96895.84
2018-07-26T03:26:38.280Z,96896.36
2018-07-26T03:29:05.749Z,96901.55
2018-07-26T03:31:33.198Z,96895.87
2018-07-26T03:34:00.676Z,96896.26
2018-07-26T03:36:28.073Z,96898.45
2018-07-26T03:38:55.578Z,96904.62
2018-07-26T03:41:23.055Z,96902.52
2018-07-26T03:43:50.550Z,96902.74
2018-07-26T03:46:17.977Z,96897.31
2018-07-26T03:48:45.454Z,96897.77
2018-07-26T03:51:12.971Z,96902.59
2018-07-26T03:53:40.461Z,96904.67
2018-07-26T03:56:07.913Z,96904.51
2018-07-26T03:58:35.503Z,96907.41
2018-07-26T04:01:02.951Z,96909.31
2018-07-26T04:03:30.443Z,96907.98
2018-07-26T04:05:57.870Z,96907.05
2018-07-26T04:08:25.326Z,96905.30
2018-07-26T04:10:52.803Z,96907.84
2018-07-26T04:13:20.268Z,96909.81
2018-07-26T04:15:47.757Z,96911.92
2018-07-26T04:18:15.351Z,96909.41
2018-07-26T04:20:42.820Z,96907.97
2018-07-26T04:23:10.295Z,96907.03
2018-07-26T04:25:37.742Z,96904.60
2018-07-26T04:28:05.169Z,96905.42
2018-07-26T04:30:32.711Z,96907.41
2018-07-26T04:33:00.230Z,96907.22
2018-07-26T04:35:27.658Z,96911.05
2018-07-26T04:37:55.089Z,96903.59
2018-07-26T04:40:22.556Z,96899.23
2018-07-26T04:42:50.045Z,96906.16
2018-07-26T04:45:17.502Z,96908.25
2018-07-26T04:47:45.028Z,96901.52
2018-07-26T04:50:12.543Z,96910.92
2018-07-26T04:52:39.981Z,96910.38
2018-07-26T04:55:07.420Z,96914.05
2018-07-26T04:57:34.896Z,96914.34
2018-07-26T05:00:02.505Z,96917.23
2018-07-26T05:02:29.993Z,96917.50
2018-07-26T05:04:57.499Z,96920.16
2018-07-26T05:07:24.993Z,96920.14
2018-07-26T05:09:52.627Z,96919.84
2018-07-26T05:12:20.038Z,96918.59
2018-07-26T05:14:47.562Z,96922.78
2018-07-26T05:17:15.066Z,96929.19
2018-07-26T05:19:42.619Z,96922.95
2018-07-26T05:22:10.142Z,96921.46
2018-07-26T05:24:37.660Z,96921.00
2018-07-26T05:27:05.559Z,96919.48
2018-07-26T05:29:33.076Z,96916.60
2018-07-26T05:32:00.541Z,96924.78
2018-07-26T05:34:27.949Z,96925.41
2018-07-26T05:36:55.436Z,96929.05
2018-07-26T05:39:22.881Z,96930.39
2018-07-26T05:41:50.407Z,96923.36
2018-07-26T05:44:17.827Z,96926.78
2018-07-26T05:46:45.234Z,96927.64
2018-07-26T05:49:12.758Z,96936.23
2018-07-26T05:51:40.211Z,96932.34
2018-07-26T05:54:07.698Z,96934.03
2018-07-26T05:56:35.227Z,96928.98
2018-07-26T05:59:02.743Z,96926.87
2018-07-26T06:01:30.284Z,96929.52
2018-07-26T06:03:57.743Z,96933.96
2018-07-26T06:06:25.191Z,96933.44
2018-07-26T06:08:52.660Z,96936.36
2018-07-26T06:11:20.182Z,96933.83
2018-07-26T06:13:47.670Z,96927.68
2018-07-26T06:16:15.557Z,96934.45
2018-07-26T06:18:43.046Z,96931.72
2018-07-26T06:21:10.482Z,96935.69
2018-07-26T06:23:37.951Z,96941.82
2018-07-26T06:26:05.618Z,96934.09
2018-07-26T06:28:33.168Z,96935.28
2018-07-26T06:31:00.641Z,96941.39
2018-07-26T06:33:28.148Z,96933.82
2018-07-26T06:35:55.826Z,96934.95
2018-07-26T06:38:23.246Z,96942.50
2018-07-26T06:40:50.713Z,96934.73
2018-07-26T06:43:18.141Z,96938.35
2018-07-26T06:45:45.658Z,96934.30
2018-07-26T06:48:13.227Z,96932.19
2018-07-26T06:50:40.744Z,96931.08
2018-07-26T06:53:08.216Z,96941.83
2018-07-26T06:55:35.658Z,96943.02
2018-07-26T06:58:03.118Z,96937.45
2018-07-26T07:00:30.602Z,96932.73
2018-07-26T07:02:58.052Z,96938.13
2018-07-26T07:05:25.518Z,96933.25
2018-07-26T07:07:53.000Z,96930.89
2018-07-26T07:10:20.541Z,96934.83
2018-07-26T07:12:47.953Z,96937.94
2018-07-26T07:15:15.409Z,96933.11
2018-07-26T07:17:42.858Z,96932.90
2018-07-26T07:20:10.325Z,96935.06
2018-07-26T07:22:37.799Z,96928.92
2018-07-26T07:25:05.287Z,96921.57
2018-07-26T07:27:32.706Z,96927.73
2018-07-26T07:30:00.157Z,96926.56
2018-07-26T07:32:27.642Z,96925.38
2018-07-26T07:34:56.072Z,96923.51
2018-07-26T07:37:23.716Z,96928.91
2018-07-26T07:39:51.192Z,96927.00
2018-07-26T07:42:18.738Z,96928.34
2018-07-26T07:44:46.223Z,96918.12
2018-07-26T07:47:13.687Z,96920.79
2018-07-26T07:49:41.158Z,96918.04
2018-07-26T07:52:08.614Z,96919.19
2018-07-26T07:54:36.094Z,96924.83
2018-07-26T07:57:03.615Z,96922.04
2018-07-26T07:59:31.170Z,96925.50
2018-07-26T08:01:58.531Z,96919.30
2018-07-26T08:04:26.003Z,96919.27
2018-07-26T08:06:53.625Z,96919.03
2018-07-26T08:09:21.058Z,96924.27
2018-07-26T08:11:48.540Z,96915.55
2018-07-26T08:14:16.110Z,96922.74
2018-07-26T08:16:43.559Z,96921.85
2018-07-26T08:19:11.016Z,96916.08
2018-07-26T08:21:38.846Z,96914.80
2018-07-26T08:24:06.308Z,96917.45
2018-07-26T08:26:33.794Z,96915.60
2018-07-26T08:29:01.257Z,96917.62
2018-07-26T08:31:28.734Z,96909.98
2018-07-26T08:33:56.577Z,96916.69
2018-07-26T08:36:24.667Z,96912.03
2018-07-26T08:38:52.114Z,96911.12
2018-07-26T08:41:19.571Z,96909.61
2018-07-26T08:43:47.077Z,96907.48
2018-07-26T08:46:14.487Z,96913.18
2018-07-26T08:48:41.514Z,96910.76
2018-07-26T08:51:08.634Z,96911.97
2018-07-26T08:53:36.136Z,96915.66
2018-07-26T08:56:03.178Z,96910.42
2018-07-26T08:58:30.630Z,96912.63
2018-07-26T09:00:58.044Z,96901.53
2018-07-26T09:03:25.527Z,96907.58
2018-07-26T09:05:52.930Z,96897.91
2018-07-26T09:08:20.027Z,96897.63
2018-07-26T09:10:47.023Z,96904.37
2018-07-26T09:13:13.971Z,96902.83
2018-07-26T09:15:41.445Z,96897.40
2018-07-26T09:18:08.999Z,96900.94
2018-07-26T09:20:36.475Z,96901.63
2018-07-26T09:23:03.923Z,96900.92
2018-07-26T09:25:31.569Z,96897.80
2018-07-26T09:27:59.002Z,96894.45
2018-07-26T09:30:26.544Z,96892.47
2018-07-26T09:32:54.033Z,96895.23
2018-07-26T09:35:21.568Z,96893.99
2018-07-26T09:37:49.130Z,96890.23
2018-07-26T09:40:16.610Z,96894.13
2018-07-26T09:42:44.267Z,96889.19
2018-07-26T09:45:11.723Z,96885.58
2018-07-26T09:47:40.020Z,96882.06
2018-07-26T09:50:07.589Z,96883.09
2018-07-26T09:52:35.088Z,96882.91
2018-07-26T09:55:02.599Z,96875.47
2018-07-26T09:57:30.017Z,96876.45
2018-07-26T09:59:57.475Z,96879.30
2018-07-26T10:02:24.956Z,96875.31
2018-07-26T10:04:52.476Z,96876.87
2018-07-26T10:07:20.126Z,96877.66
2018-07-26T10:09:47.609Z,96869.86
2018-07-26T10:12:15.183Z,96875.47
2018-07-26T10:14:42.615Z,96866.94
2018-07-26T10:17:10.285Z,96868.42
2018-07-26T10:19:37.792Z,96866.13
2018-07-26T10:22:05.261Z,96866.97
2018-07-26T10:24:32.797Z,96868.92
2018-07-26T10:27:00.399Z,96864.00
2018-07-26T10:29:27.929Z,96859.28
2018-07-26T10:31:55.525Z,96859.70
2018-07-26T10:34:23.381Z,96855.13
2018-07-26T10:36:50.835Z,96853.94
2018-07-26T10:39:18.443Z,96851.67
2018-07-26T10:41:46.001Z,96851.17
2018-07-26T10:44:13.466Z,96849.72
2018-07-26T10:46:40.960Z,96853.16
2018-07-26T10:49:08.408Z,96854.64
2018-07-26T10:51:35.997Z,96857.14
2018-07-26T10:54:03.461Z,96842.59
2018-07-26T10:56:31.117Z,96850.58
2018-07-26T10:58:58.678Z,96843.71
2018-07-26T11:01:26.148Z,96844.66
2018-07-26T11:03:53.778Z,96838.86
2018-07-26T11:06:21.443Z,96845.55
2018-07-26T11:08:49.000Z,96843.92
2018-07-26T11:11:16.657Z,96840.63
2018-07-26T11:13:44.166Z,96843.05
2018-07-26T11:16:11.590Z,96840.64
2018-07-26T11:18:39.038Z,96837.93
2018-07-26T11:21:06.527Z,96834.80
2018-07-26T11:23:33.970Z,96836.05
2018-07-26T11:26:01.471Z,96827.38
2018-07-26T11:28:28.935Z,96829.29
2018-07-26T11:30:56.584Z,96824.91
2018-07-26T11:33:24.091Z,96821.05
2018-07-26T11:35:51.549Z,96821.42
2018-07-26T11:38:19.093Z,96823.58
2018-07-26T11:40:46.532Z,96817.45
2018-07-26T11:43:13.962Z,96816.17
2018-07-26T11:45:41.563Z,96806.27
2018-07-26T11:48:09.135Z,96810.38
2018-07-26T11:50:36.619Z,96805.69
2018-07-26T11:53:04.077Z,96801.14
2018-07-26T11:55:31.563Z,96805.30
2018-07-26T11:57:59.220Z,96799.05
2018-07-26T12:00:26.666Z,96789.59
2018-07-26T12:02:54.134Z,96786.56
2018-07-26T12:05:21.626Z,96783.98
2018-07-26T12:07:49.313Z,96785.14
2018-07-26T12:10:16.819Z,96788.05
2018-07-26T12:12:44.253Z,96779.99
2018-07-26T12:15:11.734Z,96778.64
2018-07-26T12:17:39.171Z,96772.03
2018-07-26T12:20:06.750Z,96781.04
2018-07-26T12:22:34.183Z,96778.31
2018-07-26T12:25:01.622Z,96767.76
2018-07-26T12:27:29.049Z,96763.31
2018-07-26T12:29:56.642Z,96762.49
2018-07-26T12:32:24.054Z,96755.83
2018-07-26T12:34:51.530Z,96759.70
2018-07-26T12:37:19.044Z,96753.89
2018-07-26T12:39:46.607Z,96757.28
2018-07-26T12:42:14.143Z,96755.36
2018-07-26T12:44:41.634Z,96756.83
2018-07-26T12:47:09.128Z,96753.94
2018-07-26T12:49:36.534Z,96753.22
2018-07-26T12:52:03.580Z,96751.23
2018-07-26T12:54:31.000Z,96745.25
2018-07-26T12:56:58.459Z,96751.88
2018-07-26T12:59:25.900Z,96746.70
2018-07-26T13:01:52.921Z,96740.03
2018-07-26T13:04:19.927Z,96738.61
2018-07-26T13:06:47.061Z,96737.19
2018-07-26T13:09:14.556Z,96734.55
2018-07-26T13:11:42.084Z,96734.25
2018-07-26T13:14:09.605Z,96728.24
2018-07-26T13:16:37.096Z,96725.73
2018-07-26T13:19:04.528Z,96725.77
2018-07-26T13:21:31.551Z,96715.39
2018-07-26T13:23:58.597Z,96713.25
2018-07-26T13:26:25.585Z,96720.34
2018-07-26T13:28:53.098Z,96706.97
2018-07-26T13:31:20.569Z,96711.86
2018-07-26T13:33:48.077Z,96703.66
2018-07-26T13:36:15.608Z,96697.42
2018-07-26T13:38:43.136Z,96705.68
2018-07-26T13:41:10.598Z,96701.73
2018-07-26T13:43:38.071Z,96697.73
2018-07-26T13:46:05.531Z,96696.31
2018-07-26T13:48:33.106Z,96696.87
2018-07-26T13:51:00.562Z,96697.17
2018-07-26T13:53:28.049Z,96698.26
2018-07-26T13:55:55.593Z,96695.39
2018-07-26T13:58:23.137Z,96691.80
2018-07-26T14:00:50.767Z,96691.25
2018-07-26T14:03:18.244Z,96688.39
2018-07-26T14:05:45.715Z,96681.28
2018-07-26T14:08:13.379Z,96681.33
2018-07-26T14:10:40.798Z,96672.94
2018-07-26T14:13:08.311Z,96667.84
2018-07-26T14:15:35.808Z,96662.19
2018-07-26T14:18:03.309Z,96663.69
2018-07-26T14:20:30.802Z,96664.56
2018-07-26T14:22:58.290Z,96669.41
2018-07-26T14:25:25.744Z,96673.23
2018-07-26T14:27:53.286Z,96664.24
2018-07-26T14:30:20.747Z,96661.25
2018-07-26T14:32:48.248Z,96667.72
2018-07-26T14:35:15.723Z,96663.91
2018-07-26T14:37:43.296Z,96658.35
2018-07-26T14:40:10.787Z,96665.75
2018-07-26T14:42:38.197Z,96664.16
2018-07-26T14:45:05.754Z,96656.31
2018-07-26T14:47:33.246Z,96651.27
2018-07-26T14:50:00.728Z,96655.66
2018-07-26T14:52:28.225Z,96658.83
2018-07-26T14:54:56.087Z,96661.93
2018-07-26T14:57:23.664Z,96651.59
2018-07-26T14:59:51.181Z,96654.25
2018-07-26T15:02:18.771Z,96644.05
2018-07-26T15:04:46.229Z,96651.27
2018-07-26T15:07:13.725Z,96653.49
2018-07-26T15:09:41.284Z,96647.49
2018-07-26T15:12:08.844Z,96643.55
2018-07-26T15:14:36.336Z,96645.16
2018-07-26T15:17:03.783Z,96638.49
2018-07-26T15:19:31.285Z,96638.09
2018-07-26T15:21:59.561Z,96622.03
2018-07-26T15:24:27.282Z,96629.20
2018-07-26T15:26:54.692Z,96631.12
2018-07-26T15:29:22.287Z,96631.03
2018-07-26T15:31:49.836Z,96635.53
2018-07-26T15:34:17.309Z,96636.43
2018-07-26T15:36:44.752Z,96631.78
2018-07-26T15:39:12.203Z,96632.58
2018-07-26T15:41:39.760Z,96632.39
2018-07-26T15:44:07.567Z,96632.72
2018-07-26T15:46:35.023Z,96636.72
2018-07-26T15:49:02.442Z,96636.72
2018-07-26T15:51:29.956Z,96639.30
2018-07-26T15:53:57.435Z,96634.95
2018-07-26T15:56:24.971Z,96637.94
2018-07-26T15:58:52.575Z,96638.90
2018-07-26T16:01:20.015Z,96644.09
2018-07-26T16:03:47.472Z,96642.06
2018-07-26T16:06:14.931Z,96635.36
2018-07-26T16:08:42.382Z,96637.53
2018-07-26T16:11:09.837Z,96646.23
2018-07-26T16:13:37.327Z,96640.66
2018-07-26T16:16:04.830Z,96645.51
2018-07-26T16:18:32.408Z,96631.42
2018-07-26T16:20:59.843Z,96628.70
2018-07-26T16:23:27.347Z,96631.16
2018-07-26T16:25:55.423Z,96631.57
2018-07-26T16:28:23.012Z,96627.48
2018-07-26T16:30:50.520Z,96626.53
2018-07-26T16:33:18.028Z,96623.22
2018-07-26T16:35:45.557Z,96623.87
2018-07-26T16:38:12.988Z,96618.44
2018-07-26T16:40:40.484Z,96617.77
2018-07-26T16:43:08.182Z,96617.31
2018-07-26T16:45:35.657Z,96615.96
2018-07-26T16:48:03.157Z,96623.08
2018-07-26T16:50:30.617Z,96614.91
2018-07-26T16:52:58.058Z,96619.65
2018-07-26T16:55:25.520Z,96621.05
2018-07-26T16:57:52.939Z,96612.83
2018-07-26T17:00:20.427Z,96622.73
2018-07-26T17:02:47.988Z,96617.47
2018-07-26T17:05:15.490Z,96621.00
2018-07-26T17:07:42.998Z,96623.53
2018-07-26T17:10:10.503Z,96623.13
2018-07-26T17:12:37.974Z,96622.34
2018-07-26T17:15:05.525Z,96619.45
2018-07-26T17:17:32.958Z,96623.87
2018-07-26T17:20:00.487Z,96623.72
2018-07-26T17:22:28.101Z,96621.23
2018-07-26T17:24:55.617Z,96623.01
2018-07-26T17:27:23.062Z,96622.89
2018-07-26T17:29:50.551Z,96629.24
2018-07-26T17:32:18.014Z,96631.98
2018-07-26T17:34:45.481Z,96628.52
2018-07-26T17:37:13.075Z,96629.60
2018-07-26T17:39:40.656Z,96636.28
2018-07-26T17:42:08.098Z,96636.27
2018-07-26T17:44:35.654Z,96633.28
2018-07-26T17:47:03.606Z,96640.50
2018-07-26T17:49:31.094Z,96638.32
2018-07-26T17:51:58.564Z,96644.09
2018-07-26T17:54:26.021Z,96645.32
2018-07-26T17:56:53.595Z,96649.21
2018-07-26T17:59:21.031Z,96651.91
2018-07-26T18:01:48.454Z,96651.78
2018-07-26T18:04:16.029Z,96651.42
2018-07-26T18:06:43.447Z,96655.18
2018-07-26T18:09:10.935Z,96665.28
2018-07-26T18:11:38.481Z,96660.38
2018-07-26T18:14:05.964Z,96662.37
2018-07-26T18:16:33.466Z,96664.94
2018-07-26T18:19:00.874Z,96663.75
2018-07-26T18:21:28.336Z,96666.23
2018-07-26T18:23:55.812Z,96667.20
2018-07-26T18:26:23.371Z,96666.50
2018-07-26T18:28:50.816Z,96671.85
2018-07-26T18:31:18.276Z,96677.17
2018-07-26T18:33:45.754Z,96674.90
2018-07-26T18:36:13.183Z,96677.87
2018-07-26T18:38:40.598Z,96679.64
2018-07-26T18:41:08.137Z,96685.95
2018-07-26T18:43:35.658Z,96684.09
2018-07-26T18:46:03.121Z,96685.87
2018-07-26T18:48:30.568Z,96689.17
2018-07-26T18:50:57.982Z,96685.53
2018-07-26T18:53:25.455Z,96692.09
2018-07-26T18:55:52.855Z,96693.52
2018-07-26T18:58:20.497Z,96702.88
2018-07-26T19:00:47.940Z,96701.48
2018-07-26T19:03:15.435Z,96708.78
2018-07-26T19:05:43.071Z,96706.22
2018-07-26T19:08:10.673Z,96710.47
2018-07-26T19:10:38.189Z,96706.42
2018-07-26T19:13:05.633Z,96713.27
2018-07-26T19:15:33.216Z,96714.58
2018-07-26T19:18:00.867Z,96717.73
2018-07-26T19:20:28.324Z,96719.73
2018-07-26T19:22:55.819Z,96720.67
2018-07-26T19:25:23.251Z,96719.65
2018-07-26T19:27:50.708Z,96729.27
2018-07-26T19:30:19.288Z,96722.42
2018-07-26T19:32:46.803Z,96725.61
2018-07-26T19:35:14.287Z,96723.70
2018-07-26T19:37:41.771Z,96733.50
2018-07-26T19:40:09.297Z,96725.86
2018-07-26T19:42:36.841Z,96730.83
2018-07-26T19:45:05.363Z,96726.48
2018-07-26T19:47:32.772Z,96733.66
2018-07-26T19:50:00.299Z,96728.81
2018-07-26T19:52:27.755Z,96735.77
2018-07-26T19:54:55.159Z,96741.44
2018-07-26T19:57:22.655Z,96746.22
2018-07-26T19:59:50.157Z,96754.06
2018-07-26T20:02:17.793Z,96755.99
2018-07-26T20:04:45.285Z,96759.31
2018-07-26T20:07:12.794Z,96760.00
2018-07-26T20:09:40.320Z,96767.06
2018-07-26T20:12:08.023Z,96769.77
2018-07-26T20:14:35.544Z,96769.02
2018-07-26T20:17:03.046Z,96774.77
2018-07-26T20:19:30.494Z,96773.70
2018-07-26T20:21:57.977Z,96767.74
2018-07-26T20:24:25.525Z,96778.20
2018-07-26T20:26:52.999Z,96771.61
2018-07-26T20:29:20.480Z,96774.31
2018-07-26T20:31:47.897Z,96780.56
2018-07-26T20:34:16.208Z,96781.50
2018-07-26T20:36:43.687Z,96786.48
2018-07-26T20:39:11.252Z,96790.67
2018-07-26T20:41:38.703Z,96794.23
2018-07-26T20:44:06.122Z,96789.77
2018-07-26T20:46:33.578Z,96791.25
2018-07-26T20:49:01.122Z,96794.73
2018-07-26T20:51:28.580Z,96794.82
2018-07-26T20:53:56.069Z,96791.22
2018-07-26T20:56:23.659Z,96805.89
2018-07-26T20:58:51.123Z,96808.72
2018-07-26T21:01:18.704Z,96799.69
2018-07-26T21:03:46.136Z,96804.17
2018-07-26T21:06:13.598Z,96799.14
2018-07-26T21:08:41.068Z,96806.78
2018-07-26T21:11:08.478Z,96804.61
2018-07-26T21:13:35.947Z,96806.32
2018-07-26T21:16:03.352Z,96807.75
2018-07-26T21:18:30.938Z,96806.84
2018-07-26T21:20:58.413Z,96806.34
2018-07-26T21:23:25.925Z,96808.11
2018-07-26T21:25:53.491Z,96802.80
2018-07-26T21:28:20.934Z,96805.70
2018-07-26T21:30:48.378Z,96802.28
2018-07-26T21:33:15.884Z,96804.47
2018-07-26T21:35:43.303Z,96808.60
2018-07-26T21:38:10.818Z,96811.30
2018-07-26T21:40:38.301Z,96814.73
2018-07-26T21:43:05.700Z,96820.44
2018-07-26T21:45:33.160Z,96817.59
2018-07-26T21:48:00.803Z,96825.60
2018-07-26T21:50:28.342Z,96827.22
2018-07-26T21:52:55.839Z,96827.67
2018-07-26T21:55:23.350Z,96828.30
2018-07-26T21:57:51.098Z,96822.52
2018-07-26T22:00:18.596Z,96825.83
2018-07-26T22:02:47.829Z,96823.84
2018-07-26T22:05:15.401Z,96822.06
2018-07-26T22:07:43.005Z,96814.22
2018-07-26T22:10:10.523Z,96816.41
2018-07-26T22:12:38.018Z,96816.32
2018-07-26T22:15:05.550Z,96817.89
2018-07-26T22:17:33.002Z,96817.47
2018-07-26T22:20:00.441Z,96815.39
2018-07-26T22:22:27.878Z,96820.27
2018-07-26T22:24:55.382Z,96821.92
2018-07-26T22:27:22.817Z,96818.30
2018-07-26T22:29:50.280Z,96818.41
2018-07-26T22:32:17.734Z,96820.38
2018-07-26T22:34:45.197Z,96823.89
2018-07-26T22:37:12.635Z,96829.94
2018-07-26T22:39:40.142Z,96830.45
2018-07-26T22:42:07.623Z,96828.20
2018-07-26T22:44:35.122Z,96832.09
2018-07-26T22:47:02.599Z,96829.11
2018-07-26T22:49:30.144Z,96830.05
2018-07-26T22:51:57.542Z,96828.38
2018-07-26T22:54:25.032Z,96827.03
2018-07-26T22:56:52.528Z,96829.11
2018-07-26T22:59:20.007Z,96831.99
2018-07-26T23:01:47.474Z,96831.58
2018-07-26T23:04:14.980Z,96830.45
2018-07-26T23:06:42.495Z,96835.50
2018-07-26T23:09:09.943Z,96834.56
2018-07-26T23:11:37.375Z,96834.35
2018-07-26T23:14:04.841Z,96839.59
2018-07-26T23:16:32.299Z,96841.66
2018-07-26T23:18:59.753Z,96842.17
2018-07-26T23:21:27.231Z,96844.87
2018-07-26T23:23:54.710Z,96839.98
2018-07-26T23:26:22.113Z,96839.69
2018-07-26T23:28:49.550Z,96841.52
2018-07-26T23:31:16.957Z,96847.09
2018-07-26T23:33:44.456Z,96843.17
2018-07-26T23:36:11.901Z,96849.06
2018-07-26T23:38:39.403Z,96849.55
2018-07-26T23:41:06.882Z,96851.01
2018-07-26T23:43:34.363Z,96844.72
2018-07-26T23:46:01.838Z,96846.84
2018-07-26T23:48:29.285Z,96850.53
2018-07-26T23:50:56.740Z,96847.63
2018-07-26T23:53:24.194Z,96846.31
2018-07-26T23:55:51.636Z,96848.18
2018-07-26T23:58:19.114Z,96855.01
